createdAt,value
2018-12-31T00:01:38.102Z,10.67
2018-12-31T00:03:42.910Z,12.17
2018-12-31T00:05:48.727Z,15.20
2018-12-31T00:08:00.788Z,11.43
2018-12-31T00:10:12.562Z,11.73
2018-12-31T00:12:23.887Z,11.90
2018-12-31T00:14:32.182Z,8.77
2018-12-31T00:16:39.384Z,12.93
2018-12-31T00:18:45.235Z,10.23
2018-12-31T00:20:51.026Z,12.47
2018-12-31T00:22:57.514Z,11.93
2018-12-31T00:25:05.871Z,16.83
2018-12-31T00:27:18.796Z,8.30
2018-12-31T00:29:30.586Z,10.00
2018-12-31T00:31:38.028Z,13.23
2018-12-31T00:33:47.047Z,12.37
2018-12-31T00:35:57.019Z,14.30
2018-12-31T00:38:07.942Z,7.37
2018-12-31T00:40:15.226Z,8.40
2018-12-31T00:42:25.700Z,8.80
2018-12-31T00:44:38.026Z,8.10
2018-12-31T00:46:51.237Z,12.07
2018-12-31T00:48:58.743Z,15.67
2018-12-31T00:51:09.499Z,10.77
2018-12-31T00:53:19.908Z,12.27
2018-12-31T00:55:30.704Z,14.70
2018-12-31T00:57:38.075Z,13.93
2018-12-31T00:59:45.973Z,15.63
2018-12-31T01:01:54.290Z,14.27
2018-12-31T01:04:03.270Z,15.67
2018-12-31T01:06:14.088Z,15.77
2018-12-31T01:08:24.018Z,13.17
2018-12-31T01:10:32.978Z,17.83
2018-12-31T01:12:42.151Z,13.23
2018-12-31T01:14:51.510Z,12.47
2018-12-31T01:17:02.118Z,14.53
2018-12-31T01:19:10.550Z,14.53
2018-12-31T01:21:19.082Z,11.17
2018-12-31T01:23:29.158Z,14.67
2018-12-31T01:25:43.162Z,13.77
2018-12-31T01:27:52.264Z,14.60
2018-12-31T01:30:00.627Z,11.50
2018-12-31T01:32:08.667Z,19.97
2018-12-31T01:34:15.047Z,15.23
2018-12-31T01:36:22.614Z,14.80
2018-12-31T01:38:28.402Z,13.03
2018-12-31T01:40:36.472Z,14.00
2018-12-31T01:42:47.238Z,14.43
2018-12-31T01:44:58.263Z,11.93
2018-12-31T01:47:07.187Z,12.27
2018-12-31T01:49:16.714Z,14.63
2018-12-31T01:51:26.903Z,11.93
2018-12-31T01:53:35.698Z,13.43
2018-12-31T01:55:44.278Z,17.80
2018-12-31T01:57:52.519Z,14.17
2018-12-31T02:00:00.663Z,15.67
2018-12-31T02:02:07.954Z,14.47
2018-12-31T02:04:17.223Z,15.53
2018-12-31T02:06:29.356Z,13.50
2018-12-31T02:08:37.694Z,14.80
2018-12-31T02:10:48.466Z,16.50
2018-12-31T02:12:57.011Z,16.80
2018-12-31T02:15:06.454Z,17.53
2018-12-31T02:17:15.439Z,12.93
2018-12-31T02:19:21.411Z,17.80
2018-12-31T02:21:30.351Z,17.63
2018-12-31T02:23:39.110Z,19.87
2018-12-31T02:25:49.331Z,18.10
2018-12-31T02:27:58.219Z,16.73
2018-12-31T02:30:07.843Z,17.13
2018-12-31T02:32:19.250Z,18.50
2018-12-31T02:34:27.984Z,19.27
2018-12-31T02:36:32.885Z,14.50
2018-12-31T02:38:38.943Z,17.90
2018-12-31T02:40:43.807Z,19.07
2018-12-31T02:42:49.004Z,17.70
2018-12-31T02:44:56.379Z,17.83
2018-12-31T02:47:06.029Z,19.03
2018-12-31T02:49:14.585Z,17.23
2018-12-31T02:51:26.171Z,22.10
2018-12-31T02:53:34.751Z,18.03
2018-12-31T02:55:43.511Z,21.50
2018-12-31T02:57:53.321Z,19.20
2018-12-31T03:00:02.603Z,19.13
2018-12-31T03:02:10.552Z,20.23
2018-12-31T03:04:18.047Z,17.87
2018-12-31T03:06:24.350Z,20.73
2018-12-31T03:08:33.284Z,21.67
2018-12-31T03:10:40.744Z,20.93
2018-12-31T03:12:48.224Z,18.07
2018-12-31T03:14:57.084Z,18.80
2018-12-31T03:17:07.990Z,22.27
2018-12-31T03:19:16.086Z,21.70
2018-12-31T03:21:28.670Z,22.23
2018-12-31T03:23:40.434Z,20.63
2018-12-31T03:25:50.762Z,22.27
2018-12-31T03:28:00.995Z,20.30
2018-12-31T03:30:11.062Z,19.33
2018-12-31T03:32:19.995Z,19.77
2018-12-31T03:34:31.721Z,18.83
2018-12-31T03:36:41.735Z,23.83
2018-12-31T03:38:51.834Z,20.07
2018-12-31T03:40:57.559Z,22.73
2018-12-31T03:43:04.039Z,23.50
2018-12-31T03:45:13.429Z,22.10
2018-12-31T03:47:25.687Z,24.53
2018-12-31T03:49:33.938Z,19.77
2018-12-31T03:51:42.663Z,22.83
2018-12-31T03:53:52.035Z,25.90
2018-12-31T03:56:00.079Z,19.37
2018-12-31T03:58:09.975Z,24.80
2018-12-31T04:00:16.520Z,19.67
2018-12-31T04:02:22.700Z,21.53
2018-12-31T04:04:28.475Z,20.27
2018-12-31T04:06:38.509Z,20.17
2018-12-31T04:08:46.255Z,23.87
2018-12-31T04:10:56.074Z,24.57
2018-12-31T04:13:04.637Z,21.73
2018-12-31T04:15:11.065Z,21.67
2018-12-31T04:17:19.040Z,20.13
2018-12-31T04:19:26.526Z,22.90
2018-12-31T04:21:35.154Z,21.83
2018-12-31T04:23:47.727Z,25.53
2018-12-31T04:25:58.713Z,18.87
2018-12-31T04:28:06.603Z,20.30
2018-12-31T04:30:13.623Z,23.10
2018-12-31T04:32:21.691Z,24.53
2018-12-31T04:34:30.310Z,20.33
2018-12-31T04:36:41.096Z,19.60
2018-12-31T04:38:53.465Z,24.37
2018-12-31T04:41:03.227Z,22.07
2018-12-31T04:43:12.178Z,20.83
2018-12-31T04:45:19.406Z,23.43
2018-12-31T04:47:32.303Z,21.17
2018-12-31T04:49:44.153Z,23.07
2018-12-31T04:51:54.315Z,18.17
2018-12-31T04:54:02.419Z,21.60
2018-12-31T04:56:11.770Z,20.43
2018-12-31T04:58:23.274Z,20.23
2018-12-31T05:00:30.835Z,23.00
2018-12-31T05:02:39.387Z,20.77
2018-12-31T05:04:50.318Z,17.73
2018-12-31T05:07:00.665Z,19.93
2018-12-31T05:09:09.869Z,21.20
2018-12-31T05:11:17.749Z,22.10
2018-12-31T05:13:24.377Z,22.83
2018-12-31T05:15:32.326Z,19.17
2018-12-31T05:17:40.399Z,20.60
2018-12-31T05:19:51.593Z,19.97
2018-12-31T05:21:58.859Z,22.93
2018-12-31T05:24:05.617Z,17.67
2018-12-31T05:26:11.557Z,22.70
2018-12-31T05:28:18.686Z,19.40
2018-12-31T05:30:24.159Z,21.13
2018-12-31T05:32:33.896Z,20.30
2018-12-31T05:34:41.305Z,20.73
2018-12-31T05:36:49.717Z,21.83
2018-12-31T05:38:54.904Z,19.70
2018-12-31T05:41:00.903Z,21.43
2018-12-31T05:43:08.155Z,20.13
2018-12-31T05:45:14.935Z,21.07
2018-12-31T05:47:26.703Z,19.33
2018-12-31T05:49:35.671Z,21.07
2018-12-31T05:51:45.316Z,24.53
2018-12-31T05:53:57.390Z,23.53
2018-12-31T05:56:07.175Z,24.20
2018-12-31T05:58:17.639Z,23.87
2018-12-31T06:00:25.111Z,24.23
2018-12-31T06:02:32.680Z,21.17
2018-12-31T06:04:43.161Z,20.93
2018-12-31T06:06:49.149Z,23.47
2018-12-31T06:08:53.980Z,21.70
2018-12-31T06:11:02.412Z,22.60
2018-12-31T06:13:11.279Z,23.00
2018-12-31T06:15:21.111Z,22.93
2018-12-31T06:17:27.034Z,21.30
2018-12-31T06:19:32.974Z,23.27
2018-12-31T06:21:39.319Z,25.67
2018-12-31T06:23:49.035Z,23.33
2018-12-31T06:26:02.106Z,24.90
2018-12-31T06:28:08.922Z,22.20
2018-12-31T06:30:16.920Z,24.37
2018-12-31T06:32:27.927Z,24.37
2018-12-31T06:34:37.319Z,29.37
2018-12-31T06:36:45.627Z,26.27
2018-12-31T06:38:54.091Z,26.43
2018-12-31T06:41:05.799Z,28.07
2018-12-31T06:43:15.330Z,29.73
2018-12-31T06:45:25.330Z,28.60
2018-12-31T06:47:30.664Z,25.90
2018-12-31T06:49:39.175Z,25.77
2018-12-31T06:51:47.127Z,27.90
2018-12-31T06:53:55.050Z,24.53
2018-12-31T06:56:06.156Z,28.63
2018-12-31T06:58:13.207Z,23.20
2018-12-31T07:00:21.946Z,26.33
2018-12-31T07:02:30.474Z,28.73
2018-12-31T07:04:36.812Z,29.17
2018-12-31T07:06:44.215Z,27.67
2018-12-31T07:08:52.535Z,24.43
2018-12-31T07:11:02.470Z,25.00
2018-12-31T07:13:10.152Z,25.60
2018-12-31T07:15:20.501Z,27.27
2018-12-31T07:17:26.287Z,30.67
2018-12-31T07:19:31.674Z,28.40
2018-12-31T07:21:37.299Z,28.87
2018-12-31T07:23:48.987Z,27.77
2018-12-31T07:25:55.021Z,26.67
2018-12-31T07:28:01.379Z,27.33
2018-12-31T07:30:07.630Z,27.57
2018-12-31T07:32:14.759Z,28.43
2018-12-31T07:34:21.575Z,26.07
2018-12-31T07:36:26.806Z,27.37
2018-12-31T07:38:31.610Z,27.20
2018-12-31T07:40:38.770Z,29.73
2018-12-31T07:42:46.822Z,27.13
2018-12-31T07:44:55.787Z,29.30
2018-12-31T07:47:05.642Z,29.23
2018-12-31T07:49:14.507Z,29.53
2018-12-31T07:51:23.638Z,28.73
2018-12-31T07:53:31.506Z,28.10
2018-12-31T07:55:42.406Z,30.70
2018-12-31T07:57:52.231Z,29.53
2018-12-31T08:00:03.367Z,26.07
2018-12-31T08:02:12.030Z,27.50
2018-12-31T08:04:17.921Z,31.37
2018-12-31T08:06:28.839Z,25.17
2018-12-31T08:08:37.867Z,23.80
2018-12-31T08:10:47.691Z,27.30
2018-12-31T08:12:57.563Z,27.87
2018-12-31T08:15:07.559Z,28.80
2018-12-31T08:17:17.090Z,30.53
2018-12-31T08:19:24.377Z,26.53
2018-12-31T08:21:31.924Z,27.93
2018-12-31T08:23:39.127Z,23.77
2018-12-31T08:25:46.026Z,26.17
2018-12-31T08:27:55.847Z,27.00
2018-12-31T08:30:03.984Z,26.13
2018-12-31T08:32:12.187Z,27.93
2018-12-31T08:34:22.955Z,27.10
2018-12-31T08:36:31.864Z,29.13
2018-12-31T08:38:39.575Z,25.43
2018-12-31T08:40:48.746Z,30.73
2018-12-31T08:42:59.149Z,31.77
2018-12-31T08:45:05.912Z,27.53
2018-12-31T08:47:13.311Z,26.70
2018-12-31T08:49:19.064Z,29.87
2018-12-31T08:51:25.174Z,28.20
2018-12-31T08:53:31.027Z,28.63
2018-12-31T08:55:37.143Z,32.57
2018-12-31T08:57:43.978Z,28.33
2018-12-31T08:59:50.462Z,32.77
2018-12-31T09:01:56.995Z,34.57
2018-12-31T09:04:06.252Z,32.13
2018-12-31T09:06:14.106Z,30.60
2018-12-31T09:08:22.707Z,27.17
2018-12-31T09:10:32.391Z,29.40
2018-12-31T09:12:41.206Z,31.67
2018-12-31T09:14:46.902Z,32.73
2018-12-31T09:16:54.674Z,32.30
2018-12-31T09:19:03.342Z,27.80
2018-12-31T09:21:11.020Z,30.10
2018-12-31T09:23:25.679Z,32.90
2018-12-31T09:25:36.249Z,30.43
2018-12-31T09:27:44.311Z,30.47
2018-12-31T09:29:54.050Z,33.83
2018-12-31T09:32:00.322Z,30.30
2018-12-31T09:34:07.605Z,28.27
2018-12-31T09:36:14.482Z,24.50
2018-12-31T09:38:21.523Z,28.50
2018-12-31T09:40:29.960Z,30.77
2018-12-31T09:42:38.338Z,29.13
2018-12-31T09:44:49.231Z,28.73
2018-12-31T09:46:54.503Z,27.13
2018-12-31T09:49:00.317Z,30.03
2018-12-31T09:51:11.206Z,24.40
2018-12-31T09:53:23.099Z,30.57
2018-12-31T09:55:31.991Z,26.57
2018-12-31T09:57:42.782Z,26.73
2018-12-31T09:59:51.383Z,27.53
2018-12-31T10:01:59.414Z,26.53
2018-12-31T10:04:08.251Z,27.10
2018-12-31T10:06:18.178Z,27.33
2018-12-31T10:08:26.172Z,26.60
2018-12-31T10:10:35.367Z,27.97
2018-12-31T10:12:45.299Z,26.13
2018-12-31T10:14:54.564Z,26.80
2018-12-31T10:17:02.611Z,26.63
2018-12-31T10:19:10.087Z,21.63
2018-12-31T10:21:21.519Z,22.50
2018-12-31T10:23:30.612Z,18.57
2018-12-31T10:25:38.011Z,20.87
2018-12-31T10:27:42.447Z,22.67
2018-12-31T10:29:53.451Z,21.23
2018-12-31T10:32:01.347Z,23.10
2018-12-31T10:34:06.772Z,24.17
2018-12-31T10:36:16.505Z,17.53
2018-12-31T10:38:26.534Z,21.17
2018-12-31T10:40:36.807Z,19.87
2018-12-31T10:42:45.871Z,19.10
2018-12-31T10:44:55.436Z,18.20
2018-12-31T10:47:02.911Z,19.73
2018-12-31T10:49:10.875Z,21.97
2018-12-31T10:51:15.630Z,19.37
2018-12-31T10:53:21.066Z,17.97
2018-12-31T10:55:29.815Z,21.37
2018-12-31T10:57:36.600Z,23.93
2018-12-31T10:59:46.507Z,20.53
2018-12-31T11:01:55.409Z,22.17
2018-12-31T11:04:02.908Z,22.77
2018-12-31T11:06:09.731Z,21.57
2018-12-31T11:08:18.730Z,23.03
2018-12-31T11:10:26.587Z,22.37
2018-12-31T11:12:38.473Z,21.63
2018-12-31T11:14:47.484Z,21.60
2018-12-31T11:16:58.558Z,20.77
2018-12-31T11:19:08.555Z,16.90
2018-12-31T11:21:21.581Z,19.33
2018-12-31T11:23:30.030Z,21.03
2018-12-31T11:25:35.066Z,18.60
2018-12-31T11:27:42.525Z,19.10
2018-12-31T11:29:51.308Z,16.77
2018-12-31T11:31:59.686Z,15.00
2018-12-31T11:34:10.599Z,15.87
2018-12-31T11:36:21.605Z,19.30
2018-12-31T11:38:31.111Z,16.20
2018-12-31T11:40:40.971Z,13.20
2018-12-31T11:42:48.074Z,6.70
2018-12-31T11:44:54.634Z,8.27
2018-12-31T11:47:06.174Z,6.23
2018-12-31T11:49:15.165Z,8.47
2018-12-31T11:51:22.618Z,6.10
2018-12-31T11:53:30.607Z,9.53
2018-12-31T11:55:40.374Z,8.47
2018-12-31T11:57:49.843Z,8.77
2018-12-31T12:00:00.886Z,10.60
2018-12-31T12:02:10.195Z,12.13
2018-12-31T12:04:18.443Z,13.03
2018-12-31T12:06:25.478Z,12.30
2018-12-31T12:08:34.456Z,14.93
2018-12-31T12:10:41.863Z,12.20
2018-12-31T12:12:51.908Z,12.93
2018-12-31T12:15:00.966Z,16.97
2018-12-31T12:17:08.391Z,16.27
2018-12-31T12:19:17.198Z,14.37
2018-12-31T12:21:26.474Z,17.40
2018-12-31T12:23:34.835Z,11.73
2018-12-31T12:25:42.767Z,14.47
2018-12-31T12:27:50.934Z,11.13
2018-12-31T12:30:01.227Z,6.90
2018-12-31T12:32:11.059Z,11.57
2018-12-31T12:34:17.980Z,12.57
2018-12-31T12:36:27.263Z,12.43
2018-12-31T12:38:34.823Z,12.20
2018-12-31T12:40:41.242Z,8.57
2018-12-31T12:42:52.039Z,9.17
2018-12-31T12:45:02.664Z,7.60
2018-12-31T12:47:10.935Z,10.20
2018-12-31T12:49:19.911Z,12.63
2018-12-31T12:51:30.167Z,12.93
2018-12-31T12:53:40.591Z,12.07
2018-12-31T12:55:49.394Z,8.47
2018-12-31T12:57:59.627Z,7.73
2018-12-31T13:00:06.648Z,9.73
2018-12-31T13:02:17.729Z,7.13
2018-12-31T13:04:22.937Z,10.17
2018-12-31T13:06:30.422Z,8.90
2018-12-31T13:08:36.628Z,9.17
2018-12-31T13:10:46.899Z,8.63
2018-12-31T13:12:55.782Z,11.70
2018-12-31T13:15:06.133Z,9.00
2018-12-31T13:17:18.104Z,11.43
2018-12-31T13:19:26.395Z,10.03
2018-12-31T13:21:36.263Z,12.47
2018-12-31T13:23:44.644Z,12.13
2018-12-31T13:25:54.454Z,13.40
2018-12-31T13:28:03.354Z,13.53
2018-12-31T13:30:14.230Z,14.40
2018-12-31T13:32:22.535Z,11.93
2018-12-31T13:34:31.364Z,14.23
2018-12-31T13:36:42.536Z,12.90
2018-12-31T13:38:50.667Z,16.90
2018-12-31T13:40:55.737Z,12.97
2018-12-31T13:43:09.908Z,18.60
2018-12-31T13:45:20.519Z,12.67
2018-12-31T13:47:30.363Z,15.00
2018-12-31T13:49:40.135Z,16.90
2018-12-31T13:51:50.831Z,12.50
2018-12-31T13:53:55.746Z,16.63
2018-12-31T13:56:09.999Z,12.63
2018-12-31T13:58:19.323Z,12.97
2018-12-31T14:00:27.439Z,14.03
2018-12-31T14:02:38.212Z,17.80
2018-12-31T14:04:45.774Z,15.33
2018-12-31T14:06:51.034Z,12.57
2018-12-31T14:08:59.389Z,18.43
2018-12-31T14:11:08.595Z,18.53
2018-12-31T14:13:17.111Z,15.77
2018-12-31T14:15:26.955Z,17.33
2018-12-31T14:17:50.791Z,25.23
2018-12-31T14:19:57.596Z,22.30
2018-12-31T14:22:07.931Z,21.83
2018-12-31T14:24:15.863Z,23.17
2018-12-31T14:26:24.149Z,20.50
2018-12-31T14:28:33.161Z,26.40
2018-12-31T14:30:43.066Z,23.10
2018-12-31T14:32:48.239Z,31.97
2018-12-31T14:34:55.006Z,30.30
2018-12-31T14:37:00.282Z,32.20
2018-12-31T14:39:09.830Z,26.30
2018-12-31T14:41:18.851Z,33.33
2018-12-31T14:43:27.803Z,38.93
2018-12-31T14:45:35.876Z,41.57
2018-12-31T14:47:45.438Z,39.30
2018-12-31T14:49:52.118Z,32.33
2018-12-31T14:52:03.103Z,37.43
2018-12-31T14:54:11.404Z,38.93
2018-12-31T14:56:17.430Z,31.67
2018-12-31T14:58:22.645Z,31.17
2018-12-31T15:00:32.457Z,35.90
2018-12-31T15:02:38.839Z,37.97
2018-12-31T15:04:49.438Z,36.03
2018-12-31T15:06:59.450Z,25.70
2018-12-31T15:09:10.479Z,26.27
2018-12-31T15:11:20.414Z,24.67
2018-12-31T15:13:28.431Z,27.63
2018-12-31T15:15:33.343Z,25.67
2018-12-31T15:17:41.844Z,23.27
2018-12-31T15:19:49.771Z,29.77
2018-12-31T15:21:57.382Z,27.77
2018-12-31T15:24:04.278Z,24.27
2018-12-31T15:26:10.666Z,30.57
2018-12-31T15:28:16.378Z,31.13
2018-12-31T15:30:23.691Z,34.27
2018-12-31T15:32:33.851Z,29.50
2018-12-31T15:34:43.047Z,29.27
2018-12-31T15:36:50.397Z,27.97
2018-12-31T15:39:02.482Z,29.03
2018-12-31T15:41:12.210Z,35.67
2018-12-31T15:43:21.385Z,20.73
2018-12-31T15:45:30.386Z,28.23
2018-12-31T15:47:39.930Z,33.63
2018-12-31T15:49:48.524Z,30.13
2018-12-31T15:51:56.877Z,26.30
2018-12-31T15:54:06.855Z,26.50
2018-12-31T15:56:16.679Z,25.97
2018-12-31T15:58:23.881Z,33.10
2018-12-31T16:00:34.764Z,27.83
2018-12-31T16:02:45.207Z,34.53
2018-12-31T16:04:53.287Z,32.87
2018-12-31T16:07:00.731Z,23.17
2018-12-31T16:09:11.979Z,24.73
2018-12-31T16:11:24.811Z,26.40
2018-12-31T16:13:33.831Z,22.50
2018-12-31T16:15:43.866Z,25.67
2018-12-31T16:17:51.767Z,27.30
2018-12-31T16:20:01.738Z,24.07
2018-12-31T16:22:10.107Z,22.63
2018-12-31T16:24:16.803Z,36.93
2018-12-31T16:26:24.322Z,32.57
2018-12-31T16:28:32.711Z,33.60
2018-12-31T16:30:44.823Z,33.90
2018-12-31T16:32:49.974Z,37.10
2018-12-31T16:35:00.104Z,41.67
2018-12-31T16:37:09.431Z,34.10
2018-12-31T16:39:16.735Z,40.77
2018-12-31T16:41:23.951Z,28.40
2018-12-31T16:43:32.887Z,25.67
2018-12-31T16:45:38.811Z,35.00
2018-12-31T16:47:43.674Z,37.33
2018-12-31T16:49:52.912Z,36.20
2018-12-31T16:52:05.479Z,37.90
2018-12-31T16:54:16.839Z,30.23
2018-12-31T16:56:25.446Z,36.83
2018-12-31T16:58:36.637Z,33.50
2018-12-31T17:00:49.838Z,41.90
2018-12-31T17:02:56.662Z,38.97
2018-12-31T17:05:05.661Z,37.50
2018-12-31T17:07:15.559Z,46.80
2018-12-31T17:09:25.398Z,45.87
2018-12-31T17:11:34.583Z,44.43
2018-12-31T17:13:40.810Z,51.30
2018-12-31T17:15:49.946Z,51.73
2018-12-31T17:17:58.942Z,43.90
2018-12-31T17:20:04.275Z,51.50
2018-12-31T17:22:10.135Z,52.93
2018-12-31T17:24:16.890Z,49.13
2018-12-31T17:26:22.823Z,52.63
2018-12-31T17:28:31.751Z,47.83
2018-12-31T17:30:39.879Z,46.57
2018-12-31T17:32:50.826Z,46.77
2018-12-31T17:34:59.787Z,46.30
2018-12-31T17:37:08.138Z,41.73
2018-12-31T17:39:16.039Z,54.63
2018-12-31T17:41:25.084Z,51.83
2018-12-31T17:43:30.081Z,42.70
2018-12-31T17:45:36.887Z,49.30
2018-12-31T17:47:47.308Z,51.27
2018-12-31T17:49:56.039Z,49.73
2018-12-31T17:52:04.147Z,40.87
2018-12-31T17:54:13.279Z,37.30
2018-12-31T17:56:23.769Z,43.03
2018-12-31T17:58:32.118Z,30.60
2018-12-31T18:00:39.943Z,35.33
2018-12-31T18:02:52.791Z,32.77
2018-12-31T18:05:01.171Z,34.43
2018-12-31T18:07:11.823Z,24.77
2018-12-31T18:09:19.768Z,30.57
2018-12-31T18:11:33.449Z,32.73
2018-12-31T18:13:44.262Z,36.57
2018-12-31T18:15:54.190Z,31.43
2018-12-31T18:18:05.355Z,32.63
2018-12-31T18:20:12.883Z,31.57
2018-12-31T18:22:21.306Z,30.43
2018-12-31T18:24:31.849Z,32.60
2018-12-31T18:26:42.090Z,34.03
2018-12-31T18:28:53.916Z,30.33
2018-12-31T18:31:03.625Z,24.00
2018-12-31T18:33:12.588Z,27.07
2018-12-31T18:35:18.958Z,21.70
2018-12-31T18:37:30.635Z,17.73
2018-12-31T18:39:41.867Z,19.17
2018-12-31T18:41:51.127Z,21.17
2018-12-31T18:43:58.071Z,16.90
2018-12-31T18:46:03.559Z,15.97
2018-12-31T18:48:08.382Z,20.30
2018-12-31T18:50:14.982Z,19.03
2018-12-31T18:52:23.508Z,16.27
2018-12-31T18:54:33.350Z,17.30
2018-12-31T18:56:49.335Z,26.87
2018-12-31T18:58:56.959Z,23.07
2018-12-31T19:01:04.411Z,26.53
2018-12-31T19:03:13.194Z,18.77
2018-12-31T19:05:19.515Z,17.90
2018-12-31T19:07:25.527Z,20.73
2018-12-31T19:09:35.143Z,19.33
2018-12-31T19:11:44.166Z,12.37
2018-12-31T19:13:55.110Z,16.07
2018-12-31T19:16:06.367Z,18.70
2018-12-31T19:18:16.362Z,20.00
2018-12-31T19:20:24.742Z,27.73
2018-12-31T19:22:29.870Z,21.60
2018-12-31T19:24:36.688Z,19.43
2018-12-31T19:26:45.165Z,16.23
2018-12-31T19:28:55.139Z,19.57
2018-12-31T19:31:04.455Z,15.50
2018-12-31T19:33:13.624Z,17.83
2018-12-31T19:35:22.506Z,18.50
2018-12-31T19:37:32.598Z,15.57
2018-12-31T19:39:42.055Z,20.13
2018-12-31T19:41:51.089Z,17.57
2018-12-31T19:44:01.110Z,18.33
2018-12-31T19:46:11.151Z,17.00
2018-12-31T19:48:21.032Z,12.83
2018-12-31T19:50:31.823Z,20.90
2018-12-31T19:52:39.640Z,21.53
2018-12-31T19:54:45.915Z,21.07
2018-12-31T19:56:51.143Z,15.73
2018-12-31T19:58:57.721Z,16.57
2018-12-31T20:01:06.332Z,16.77
2018-12-31T20:03:15.686Z,19.00
2018-12-31T20:05:23.830Z,17.43
2018-12-31T20:07:28.642Z,16.07
2018-12-31T20:09:34.450Z,15.37
2018-12-31T20:11:42.323Z,11.93
2018-12-31T20:13:51.144Z,15.67
2018-12-31T20:15:58.675Z,14.70
2018-12-31T20:18:08.553Z,18.67
2018-12-31T20:20:19.352Z,12.57
2018-12-31T20:22:28.199Z,10.67
2018-12-31T20:24:32.828Z,11.17
2018-12-31T20:26:41.375Z,13.07
2018-12-31T20:28:51.243Z,12.97
2018-12-31T20:30:58.339Z,11.43
2018-12-31T20:33:06.246Z,15.23
2018-12-31T20:35:13.755Z,16.00
2018-12-31T20:37:20.353Z,15.63
2018-12-31T20:39:30.611Z,13.57
2018-12-31T20:41:40.598Z,12.33
2018-12-31T20:43:49.690Z,9.70
2018-12-31T20:45:59.379Z,12.57
2018-12-31T20:48:04.551Z,9.70
2018-12-31T20:50:14.646Z,14.00
2018-12-31T20:52:22.608Z,15.87
2018-12-31T20:54:30.889Z,10.10
2018-12-31T20:56:38.078Z,13.27
2018-12-31T20:58:45.471Z,15.40
2018-12-31T21:00:57.318Z,12.87
2018-12-31T21:03:05.779Z,10.77
2018-12-31T21:05:11.558Z,22.37
2018-12-31T21:07:19.507Z,12.90
2018-12-31T21:09:28.855Z,14.17
2018-12-31T21:11:37.339Z,11.10
2018-12-31T21:13:44.234Z,11.43
2018-12-31T21:15:52.919Z,15.40
2018-12-31T21:18:02.903Z,14.57
2018-12-31T21:20:13.410Z,14.93
2018-12-31T21:22:21.651Z,13.00
2018-12-31T21:24:29.939Z,9.93
2018-12-31T21:26:39.907Z,14.47
2018-12-31T21:28:52.412Z,10.93
2018-12-31T21:31:04.034Z,19.73
2018-12-31T21:33:17.971Z,10.33
2018-12-31T21:35:24.020Z,12.83
2018-12-31T21:37:33.234Z,16.10
2018-12-31T21:39:41.719Z,13.33
2018-12-31T21:41:50.194Z,13.77
2018-12-31T21:43:57.906Z,31.50
2018-12-31T21:46:06.907Z,9.33
2018-12-31T21:48:16.861Z,18.27
2018-12-31T21:50:25.675Z,79.37
2018-12-31T21:52:34.702Z,14.77
2018-12-31T21:54:46.398Z,14.20
2018-12-31T21:56:54.750Z,15.77
2018-12-31T21:59:03.530Z,17.97
2018-12-31T22:01:13.143Z,11.83
2018-12-31T22:03:22.199Z,14.40
2018-12-31T22:05:32.147Z,12.10
2018-12-31T22:07:41.270Z,10.17
2018-12-31T22:09:48.791Z,14.80
2018-12-31T22:11:59.979Z,12.47
2018-12-31T22:14:06.644Z,14.17
2018-12-31T22:16:14.986Z,12.50
2018-12-31T22:18:21.393Z,14.53
2018-12-31T22:20:27.414Z,10.67
2018-12-31T22:22:33.931Z,15.23
2018-12-31T22:24:44.199Z,15.67
2018-12-31T22:26:55.986Z,12.83
2018-12-31T22:29:04.075Z,9.70
2018-12-31T22:31:14.726Z,11.30
2018-12-31T22:33:23.595Z,13.53
2018-12-31T22:35:32.247Z,13.13
2018-12-31T22:37:41.147Z,14.80
2018-12-31T22:39:50.327Z,13.60
2018-12-31T22:42:00.454Z,19.13
2018-12-31T22:44:11.515Z,27.97
2018-12-31T22:46:17.526Z,14.47
2018-12-31T22:48:25.127Z,22.10
2018-12-31T22:50:35.366Z,30.00
2018-12-31T22:52:43.800Z,14.53
2018-12-31T22:54:49.731Z,18.20
2018-12-31T22:56:56.565Z,20.50
2018-12-31T22:59:04.547Z,38.53
2018-12-31T23:01:12.335Z,14.17
2018-12-31T23:03:26.343Z,24.67
2018-12-31T23:05:39.930Z,28.60
2018-12-31T23:07:46.775Z,19.30
2018-12-31T23:09:55.635Z,16.33
2018-12-31T23:12:09.791Z,19.00
2018-12-31T23:14:19.558Z,11.23
2018-12-31T23:16:32.755Z,17.87
2018-12-31T23:18:45.064Z,13.47
2018-12-31T23:20:52.966Z,12.57
2018-12-31T23:22:59.474Z,15.93
2018-12-31T23:25:05.573Z,18.60
2018-12-31T23:27:17.661Z,15.80
2018-12-31T23:29:23.736Z,16.30
2018-12-31T23:31:28.953Z,12.23
2018-12-31T23:33:36.823Z,16.07
2018-12-31T23:35:43.416Z,12.90
2018-12-31T23:37:52.654Z,10.87
2018-12-31T23:40:03.431Z,12.60
2018-12-31T23:42:12.519Z,16.83
2018-12-31T23:44:23.695Z,14.20
2018-12-31T23:46:31.703Z,16.50
2018-12-31T23:48:39.467Z,19.73
2018-12-31T23:50:46.826Z,23.97
2018-12-31T23:52:55.862Z,19.90
2018-12-31T23:55:03.201Z,28.80
2018-12-31T23:57:08.329Z,33.20
2018-12-31T23:59:18.411Z,35.37
